Time;durP1;ratioP1;P1;durP2;ratioP2;P2;SDS_P1;SDS_P2;PMS_P1;PMS_P2;Temp;Humidity;BMP_temperature;BMP_pressure;BME280_temperature;BME280_humidity;BME280_pressure;Samples;Min_cycle;Max_cycle;Signal;HPM_P1;HPM_P2
2021/12/04 00:01:54;;;;;;;9.32;4.47;;;;;;;-1.65;66.69;99128.00;4248742;33;34587;-73
2021/12/04 00:04:30;;;;;;;12.10;4.85;;;;;;;-1.69;68.91;99126.13;4262451;33;34642;-74
2021/12/04 00:06:58;;;;;;;8.13;3.65;;;;;;;-1.65;70.29;99121.22;4261539;33;33780;-73
2021/12/04 00:09:26;;;;;;;6.90;4.00;;;;;;;-1.06;67.86;99112.91;4261941;33;35821;-73
2021/12/04 00:12:05;;;;;;;6.72;3.53;;;;;;;-0.80;64.90;99113.72;4261549;33;35242;-73
2021/12/04 00:14:35;;;;;;;11.27;4.50;;;;;;;-0.61;63.57;99100.69;4250688;33;33731;-73
2021/12/04 00:17:04;;;;;;;11.40;4.65;;;;;;;-1.82;67.83;99095.09;4230564;33;34079;-74
2021/12/04 00:19:32;;;;;;;8.63;3.97;;;;;;;-1.22;66.89;99098.78;4248107;33;35809;-73
2021/12/04 00:22:01;;;;;;;8.20;4.55;;;;;;;-2.07;68.94;99098.47;4254661;33;34495;-73
2021/12/04 00:24:28;;;;;;;11.77;4.82;;;;;;;-2.25;70.00;99090.19;4249351;33;34455;-73
2021/12/04 00:26:56;;;;;;;7.70;4.35;;;;;;;-2.32;70.92;99083.97;4260263;33;34675;-73
2021/12/04 00:29:26;;;;;;;5.93;3.55;;;;;;;-2.00;70.90;99087.66;4260773;33;35901;-74
2021/12/04 00:31:59;;;;;;;7.80;3.47;;;;;;;-1.38;68.70;99084.63;4247815;33;34482;-73
2021/12/04 00:34:29;;;;;;;4.95;3.40;;;;;;;-0.75;64.86;99089.19;4249451;33;33575;-74
2021/12/04 00:50:32;;;;;;;7.28;3.83;;;;;;;-1.77;66.27;99092.72;4239481;33;34371;-73
2021/12/04 00:53:00;;;;;;;11.45;4.32;;;;;;;-1.78;66.06;99091.84;4237210;33;35150;-73
2021/12/04 00:55:28;;;;;;;10.35;4.62;;;;;;;-1.94;67.75;99097.22;4223417;33;32901;-73
2021/12/04 00:57:56;;;;;;;9.20;4.93;;;;;;;-2.51;71.95;99088.38;4257220;33;32235;-73
2021/12/04 01:00:24;;;;;;;9.32;3.67;;;;;;;-1.83;70.72;99083.16;4261953;33;35878;-73
2021/12/04 01:02:52;;;;;;;6.10;3.58;;;;;;;-1.97;69.05;99090.34;4261083;33;35151;-73
2021/12/04 01:05:20;;;;;;;5.78;3.67;;;;;;;-1.72;67.56;99097.16;4262037;33;33574;-73
2021/12/04 01:07:48;;;;;;;5.45;3.65;;;;;;;-2.42;69.76;99090.41;4261157;33;34037;-73
2021/12/04 01:10:16;;;;;;;8.27;3.37;;;;;;;-2.06;69.19;99094.25;4262034;33;34842;-73
2021/12/04 01:12:44;;;;;;;6.30;4.28;;;;;;;-1.15;64.93;99080.28;4261182;33;34271;-73
2021/12/04 01:15:12;;;;;;;6.03;3.83;;;;;;;-1.04;63.27;99086.59;4262190;33;34378;-73
2021/12/04 01:17:40;;;;;;;8.63;4.22;;;;;;;-1.76;66.02;99090.22;4261177;33;34758;-73
2021/12/04 01:20:11;;;;;;;6.62;3.53;;;;;;;-2.00;67.79;99094.47;4261897;33;35024;-73
2021/12/04 01:22:39;;;;;;;8.60;3.70;;;;;;;-2.32;67.72;99092.47;4260913;33;34619;-74
2021/12/04 01:25:07;;;;;;;10.15;5.43;;;;;;;-2.63;69.18;99085.41;4261919;33;34511;-74
2021/12/04 01:27:37;;;;;;;7.80;4.07;;;;;;;-2.94;69.65;99088.47;4259089;33;33909;-73
2021/12/04 01:30:06;;;;;;;7.60;3.85;;;;;;;-2.60;68.56;99077.84;4260765;33;35783;-74
2021/12/04 01:32:34;;;;;;;16.80;4.62;;;;;;;-2.26;69.67;99080.78;4248316;33;35123;-73
2021/12/04 01:35:02;;;;;;;7.37;3.95;;;;;;;-1.55;68.24;99081.56;4249135;33;33387;-73
2021/12/04 01:37:30;;;;;;;9.85;4.68;;;;;;;-1.80;67.70;99085.81;4261008;33;34725;-74
2021/12/04 01:39:58;;;;;;;8.70;4.47;;;;;;;-2.21;67.81;99080.13;4261781;33;34966;-73
2021/12/04 01:42:26;;;;;;;13.68;4.85;;;;;;;-2.19;66.18;99075.97;4259557;33;34577;-73
2021/12/04 01:44:54;;;;;;;8.10;3.70;;;;;;;-3.04;71.33;99071.94;4261134;33;34783;-73
2021/12/04 01:47:21;;;;;;;7.57;4.28;;;;;;;-1.88;67.34;99078.72;4261085;33;34838;-73
2021/12/04 01:49:51;;;;;;;9.25;3.87;;;;;;;-3.02;71.00;99079.63;4261647;33;35777;-73
2021/12/04 01:52:20;;;;;;;9.30;4.80;;;;;;;-1.92;65.69;99083.72;4242664;33;34650;-74
2021/12/04 01:54:50;;;;;;;11.40;5.37;;;;;;;-2.44;66.54;99075.88;4247582;33;34470;-73
2021/12/04 01:57:20;;;;;;;7.07;3.97;;;;;;;-3.24;72.09;99074.56;4251760;33;34054;-73
2021/12/04 01:59:49;;;;;;;8.23;4.70;;;;;;;-3.17;73.79;99062.09;4248200;33;35122;-73
2021/12/04 02:02:17;;;;;;;4.97;3.12;;;;;;;-3.24;74.59;99064.37;4248409;33;35168;-73
2021/12/04 02:04:46;;;;;;;4.40;3.40;;;;;;;-2.68;71.58;99066.53;4260964;33;34469;-73
2021/12/04 02:07:15;;;;;;;5.00;2.92;;;;;;;-1.87;65.29;99066.03;4259652;33;33725;-73
2021/12/04 02:09:43;;;;;;;6.78;3.70;;;;;;;-1.94;63.96;99066.59;4261599;33;35891;-73
2021/12/04 02:12:11;;;;;;;5.47;2.17;;;;;;;-2.42;67.47;99064.91;4260825;33;34477;-73
2021/12/04 02:14:41;;;;;;;7.47;3.62;;;;;;;-2.46;69.05;99057.97;4261645;33;34371;-74
2021/12/04 02:17:09;;;;;;;7.00;3.15;;;;;;;-2.10;65.93;99057.53;4248055;33;34845;-74
2021/12/04 02:19:37;;;;;;;5.75;3.62;;;;;;;-2.34;65.22;99052.47;4248819;33;35074;-73
2021/12/04 02:22:05;;;;;;;5.10;3.33;;;;;;;-3.09;68.08;99050.50;4259243;33;34381;-73
2021/12/04 02:24:33;;;;;;;7.62;4.75;;;;;;;-2.53;68.51;99036.47;4248886;33;33120;-73
2021/12/04 02:27:01;;;;;;;6.07;3.62;;;;;;;-2.21;66.20;99044.41;4257901;33;34610;-73
2021/12/04 02:29:29;;;;;;;4.55;2.60;;;;;;;-2.51;66.17;99041.63;4261347;33;35075;-73
2021/12/04 02:31:59;;;;;;;6.32;3.55;;;;;;;-2.39;67.49;99038.66;4254986;33;34457;-73
2021/12/04 02:34:30;;;;;;;7.03;4.07;;;;;;;-2.84;69.92;99039.59;4260015;33;32871;-73
2021/12/04 02:36:58;;;;;;;5.62;3.00;;;;;;;-3.28;73.25;99042.16;4258143;33;34519;-73
2021/12/04 02:39:32;;;;;;;4.15;2.90;;;;;;;-2.71;72.18;99035.81;4260183;33;34440;-73
2021/12/04 02:42:01;;;;;;;5.18;3.45;;;;;;;-2.21;68.18;99034.22;4260661;33;35082;-73
2021/12/04 02:44:48;;;;;;;9.13;3.35;;;;;;;-2.70;67.08;99029.88;4248335;33;34465;-73
2021/12/04 02:47:16;;;;;;;;;;;;;;;-2.60;65.92;99026.00;4259038;33;33940;-73
2021/12/04 02:49:44;;;;;;;9.38;3.67;;;;;;;-2.94;69.22;99017.13;4248560;33;36174;-73
2021/12/04 02:52:13;;;;;;;4.22;3.12;;;;;;;-3.12;71.71;99017.31;4260787;33;35222;-73
2021/12/04 02:54:41;;;;;;;4.20;2.55;;;;;;;-3.65;72.11;99019.47;4260367;33;34489;-73
2021/12/04 02:57:14;;;;;;;4.72;2.78;;;;;;;-3.82;72.10;99021.31;4260374;33;33962;-73
2021/12/04 02:59:43;;;;;;;3.92;2.87;;;;;;;-4.00;72.53;99017.19;4260993;33;35059;-72
2021/12/04 03:02:21;;;;;;;6.97;3.40;;;;;;;-3.60;70.14;99022.19;4258726;33;35375;-73
2021/12/04 03:04:54;;;;;;;9.85;3.65;;;;;;;-3.37;69.65;99026.53;4249085;33;33656;-73
2021/12/04 03:07:22;;;;;;;6.97;3.55;;;;;;;-3.39;70.10;99023.03;4235086;33;33443;-73
2021/12/04 03:09:52;;;;;;;5.35;3.95;;;;;;;-2.88;68.11;99020.78;4261182;33;35102;-73
2021/12/04 03:12:23;;;;;;;8.48;5.82;;;;;;;-3.35;69.95;99018.94;4260220;33;35303;-73
2021/12/04 03:14:52;;;;;;;5.32;2.75;;;;;;;-2.30;68.36;99032.19;4250198;33;33551;-73
2021/12/04 03:17:22;;;;;;;6.80;3.83;;;;;;;-3.00;70.83;99027.97;4248873;33;32802;-73
2021/12/04 03:19:51;;;;;;;6.05;3.28;;;;;;;-3.53;72.56;99026.72;4262567;33;35196;-73
2021/12/04 03:22:22;;;;;;;6.00;3.30;;;;;;;-2.16;66.57;99019.06;4261090;33;34541;-73
2021/12/04 03:24:51;;;;;;;6.28;3.47;;;;;;;-2.61;67.84;99027.72;4261830;33;33544;-73
2021/12/04 03:27:20;;;;;;;3.90;3.12;;;;;;;-2.38;66.00;99017.44;4249162;33;34682;-73
2021/12/04 03:30:13;;;;;;;8.15;4.07;;;;;;;-2.49;65.94;99015.41;4262562;33;35888;-73
2021/12/04 03:41:07;;;;;;;3.50;3.03;;;;;;;-2.27;66.95;98983.00;4252145;33;35140;-73
2021/12/04 03:43:35;;;;;;;4.45;3.25;;;;;;;-1.93;66.23;98973.94;4260687;33;34415;-73
2021/12/04 03:46:05;;;;;;;4.53;2.72;;;;;;;-1.96;66.91;98966.16;4262591;33;33819;-74
2021/12/04 03:51:04;;;;;;;6.18;3.80;;;;;;;-2.91;67.21;98964.63;4262405;33;36079;-73
2021/12/04 03:53:32;;;;;;;4.82;3.05;;;;;;;-2.45;65.52;98964.50;4248332;33;33762;-74
2021/12/04 03:55:59;;;;;;;5.28;3.25;;;;;;;-3.58;70.55;98965.47;4262298;33;33780;-74
2021/12/04 03:58:28;;;;;;;8.07;3.70;;;;;;;-2.72;68.35;98955.97;4261702;33;34681;-73
2021/12/04 04:00:57;;;;;;;7.32;4.00;;;;;;;-2.52;65.84;98961.75;4262409;33;35128;-74
2021/12/04 04:03:27;;;;;;;5.65;3.33;;;;;;;-2.60;67.51;98958.06;4260077;33;35234;-73
2021/12/04 04:05:55;;;;;;;8.00;3.60;;;;;;;-3.78;73.21;98962.13;4249664;33;34631;-73
2021/12/04 04:08:23;;;;;;;6.70;3.58;;;;;;;-3.72;74.35;98961.53;4248786;33;34797;-73
2021/12/04 04:10:53;;;;;;;7.68;3.47;;;;;;;-3.58;72.28;98955.28;4258638;33;35077;-71
2021/12/04 04:13:21;;;;;;;4.72;2.55;;;;;;;-2.79;68.03;98955.66;4259732;33;36583;-71
2021/12/04 04:15:49;;;;;;;7.37;4.07;;;;;;;-3.43;67.99;98948.22;4261904;33;34519;-71
2021/12/04 04:18:17;;;;;;;5.95;3.00;;;;;;;-3.84;72.49;98946.63;4259973;33;34800;-72
2021/12/04 04:20:45;;;;;;;4.80;3.12;;;;;;;-3.51;71.94;98946.19;4260594;33;35020;-71
2021/12/04 04:23:14;;;;;;;7.10;3.92;;;;;;;-2.41;66.43;98944.28;4247395;33;34556;-71
2021/12/04 04:25:42;;;;;;;8.32;2.80;;;;;;;-2.40;64.24;98947.69;4248663;33;33649;-71
2021/12/04 04:28:10;;;;;;;7.75;4.10;;;;;;;-2.28;62.68;98950.66;4246976;33;34549;-71
2021/12/04 04:30:38;;;;;;;7.15;4.07;;;;;;;-3.49;69.06;98945.47;4260182;33;34900;-72
2021/12/04 04:33:07;;;;;;;6.20;4.00;;;;;;;-3.06;68.53;98946.22;4260456;33;34600;-72
2021/12/04 04:35:35;;;;;;;6.15;2.87;;;;;;;-3.62;69.31;98953.41;4261456;33;33860;-71
2021/12/04 04:38:14;;;;;;;5.50;3.42;;;;;;;-2.69;65.05;98952.62;4259789;33;33881;-71
2021/12/04 04:57:28;;;;;;;6.30;3.85;;;;;;;-2.95;65.50;98954.25;4261900;33;34627;-72
2021/12/04 04:57:43;;;;;;;8.68;4.93;;;;;;;-3.78;69.39;98964.66;4261085;33;33771;-71
2021/12/04 05:13:21;;;;;;;16.77;5.53;;;;;;;-3.43;70.14;98955.88;4261379;33;35985;-70
2021/12/04 05:20:53;;;;;;;12.98;4.32;;;;;;;-2.76;64.74;98951.53;4254686;33;34838;-77
2021/12/04 05:23:22;;;;;;;6.78;3.78;;;;;;;-2.91;66.09;98940.78;4248478;33;35104;-70
2021/12/04 05:25:50;;;;;;;6.75;3.80;;;;;;;-2.95;65.70;98950.00;4248430;33;34510;-72
2021/12/04 05:28:18;;;;;;;11.73;5.20;;;;;;;-2.80;64.02;98943.75;4259901;33;33265;-72
2021/12/04 05:30:46;;;;;;;15.32;6.10;;;;;;;-4.03;70.89;98938.25;4268821;33;33937;-73
2021/12/04 05:33:14;;;;;;;5.75;4.03;;;;;;;-4.07;72.72;98946.56;4261004;33;35759;-72
2021/12/04 05:35:47;;;;;;;7.95;3.45;;;;;;;-3.24;67.20;98947.25;4251020;33;34643;-73
2021/12/04 05:38:17;;;;;;;7.87;4.68;;;;;;;-3.31;66.51;98944.44;4260745;33;34484;-72
2021/12/04 05:40:45;;;;;;;5.80;3.00;;;;;;;-3.76;69.21;98954.56;4255267;33;34820;-71
2021/12/04 05:43:13;;;;;;;10.20;3.75;;;;;;;-3.89;71.45;98953.19;4249070;33;34944;-73
2021/12/04 05:45:49;;;;;;;17.08;4.30;;;;;;;-2.77;65.18;98943.84;4251481;33;34549;-72
2021/12/04 05:56:56;;;;;;;4.60;3.62;;;;;;;-4.08;74.77;98938.88;4248913;33;34265;-72
2021/12/04 05:59:24;;;;;;;7.55;4.20;;;;;;;-2.79;67.73;98945.47;4258563;33;33974;-72
2021/12/04 06:01:52;;;;;;;5.00;3.72;;;;;;;-3.12;66.99;98943.44;4248477;33;34748;-73
2021/12/04 06:04:20;;;;;;;8.40;5.18;;;;;;;-2.87;65.26;98928.22;4260769;33;35861;-72
2021/12/04 06:06:48;;;;;;;9.35;4.22;;;;;;;-2.71;63.82;98923.69;4260721;33;34487;-73
2021/12/04 06:09:17;;;;;;;9.32;4.87;;;;;;;-3.40;66.66;98928.81;4257889;33;34391;-73
2021/12/04 06:11:45;;;;;;;5.47;3.28;;;;;;;-4.19;73.67;98928.25;4261282;33;33950;-72
2021/12/04 06:14:13;;;;;;;6.55;3.50;;;;;;;-3.79;70.72;98927.31;4259036;33;35982;-73
2021/12/04 06:16:41;;;;;;;7.32;3.40;;;;;;;-3.48;67.18;98923.41;4253266;33;34666;-72
2021/12/04 06:19:24;;;;;;;7.40;3.78;;;;;;;-4.01;71.79;98929.03;4258877;33;33548;-72
2021/12/04 06:24:41;;;;;;;;;;;;;;;-4.10;72.82;98922.69;4261102;33;35013;-72
2021/12/04 06:27:09;;;;;;;6.65;3.83;;;;;;;-3.98;71.11;98929.94;4260784;33;34919;-74
2021/12/04 06:29:36;;;;;;;8.63;5.50;;;;;;;-3.33;67.54;98931.63;4248065;33;33740;-76
2021/12/04 06:32:05;;;;;;;7.25;4.20;;;;;;;-3.62;68.93;98931.41;4261424;33;34056;-74
2021/12/04 06:34:33;;;;;;;23.12;4.57;;;;;;;-4.11;73.16;98931.09;4260464;33;35112;-73
2021/12/04 06:37:00;;;;;;;7.05;4.07;;;;;;;-3.64;71.72;98925.34;4261272;33;35310;-74
2021/12/04 06:39:29;;;;;;;6.75;3.42;;;;;;;-3.06;68.27;98930.94;4257608;33;33611;-73
2021/12/04 06:41:56;;;;;;;10.52;5.07;;;;;;;-3.34;66.01;98924.81;4260429;33;33931;-74
2021/12/04 06:44:25;;;;;;;8.95;4.55;;;;;;;-3.32;67.17;98918.13;4247403;33;34859;-73
2021/12/04 06:46:54;;;;;;;9.60;4.40;;;;;;;-4.14;73.96;98915.75;4247237;33;34613;-73
2021/12/04 06:49:27;;;;;;;7.28;3.92;;;;;;;-3.09;69.06;98913.88;4257614;33;33679;-74
2021/12/04 06:51:58;;;;;;;8.55;4.07;;;;;;;-2.74;65.55;98916.78;4247875;33;34737;-73
2021/12/04 06:54:31;;;;;;;5.53;3.50;;;;;;;-3.54;70.46;98913.88;4258553;33;35901;-74
2021/12/04 06:56:59;;;;;;;5.22;3.17;;;;;;;-2.45;69.84;98910.97;4261402;33;35307;-74
2021/12/04 06:59:30;;;;;;;6.43;3.30;;;;;;;-1.06;63.04;98911.06;4247639;33;33770;-73
2021/12/04 07:01:59;;;;;;;10.90;3.35;;;;;;;-0.55;60.36;98912.47;4261114;33;33939;-73
2021/12/04 07:04:34;;;;;;;7.62;3.30;;;;;;;-0.42;62.49;98906.84;4260317;33;34915;-74
2021/12/04 07:07:03;;;;;;;7.72;3.90;;;;;;;-0.40;60.48;98902.63;4259257;33;35241;-74
2021/12/04 07:09:31;;;;;;;7.03;3.42;;;;;;;-0.32;59.28;98896.00;4247577;33;34588;-74
2021/12/04 07:12:00;;;;;;;7.95;4.05;;;;;;;-0.12;59.19;98893.97;4259812;33;33799;-73
2021/12/04 07:14:29;;;;;;;8.05;4.40;;;;;;;-0.05;60.69;98892.44;4237390;33;35040;-75
2021/12/04 07:16:58;;;;;;;11.43;5.05;;;;;;;-1.19;64.57;98897.06;4246480;33;35182;-75
2021/12/04 07:19:25;;;;;;;15.18;7.18;;;;;;;-0.16;60.43;98888.72;4252663;33;33731;-75
2021/12/04 07:21:54;;;;;;;9.30;4.65;;;;;;;-0.73;62.91;98895.78;4246736;33;34092;-75
2021/12/04 07:24:21;;;;;;;9.30;4.90;;;;;;;-0.37;63.18;98892.50;4254343;33;35826;-76
2021/12/04 07:26:50;;;;;;;9.35;4.65;;;;;;;-0.17;64.45;98882.75;4259557;33;35098;-75
2021/12/04 07:29:18;;;;;;;8.25;4.20;;;;;;;0.39;63.93;98879.81;4259849;33;34524;-75
2021/12/04 07:31:46;;;;;;;10.38;5.43;;;;;;;1.26;61.00;98870.47;4260755;33;33905;-75
2021/12/04 07:34:14;;;;;;;8.20;4.25;;;;;;;0.80;64.36;98867.00;4258762;33;35061;-75
2021/12/04 07:36:42;;;;;;;9.15;4.80;;;;;;;0.53;64.93;98865.59;4247853;33;34471;-75
2021/12/04 07:39:10;;;;;;;9.05;5.00;;;;;;;1.22;66.09;98860.13;4246972;33;33683;-75
2021/12/04 07:41:42;;;;;;;9.18;4.90;;;;;;;2.27;63.05;98862.75;4247646;33;33966;-76
2021/12/04 07:44:11;;;;;;;12.20;4.95;;;;;;;2.45;61.99;98852.75;4259749;33;35034;-75
2021/12/04 07:46:40;;;;;;;9.48;4.80;;;;;;;2.23;59.52;98850.69;4246877;33;34599;-75
2021/12/04 07:49:08;;;;;;;13.77;7.15;;;;;;;2.87;59.37;98849.84;4258853;33;32917;-76
2021/12/04 07:51:36;;;;;;;11.43;6.95;;;;;;;3.44;58.28;98843.59;4247398;33;33115;-76
2021/12/04 07:54:04;;;;;;;12.60;7.43;;;;;;;3.98;57.13;98847.50;4258481;33;35027;-75
2021/12/04 07:56:32;;;;;;;11.77;6.05;;;;;;;4.05;55.50;98834.69;4247801;33;34559;-75
2021/12/04 07:59:01;;;;;;;11.48;5.95;;;;;;;3.09;58.11;98838.06;4260889;33;33607;-75
2021/12/04 08:01:29;;;;;;;10.98;5.85;;;;;;;3.61;54.94;98842.03;4249647;33;34658;-75
2021/12/04 08:03:57;;;;;;;25.05;11.68;;;;;;;3.42;55.85;98845.28;4261012;33;35930;-75
2021/12/04 08:06:26;;;;;;;14.68;8.80;;;;;;;3.64;55.27;98851.53;4262349;33;34512;-76
2021/12/04 08:08:58;;;;;;;24.95;12.68;;;;;;;2.87;56.80;98854.97;4260465;33;33522;-75
2021/12/04 08:11:31;;;;;;;25.33;11.55;;;;;;;3.91;56.33;98850.87;4262373;33;34695;-75
2021/12/04 08:13:59;;;;;;;21.25;10.85;;;;;;;4.17;54.17;98845.06;4261565;33;35871;-75
2021/12/04 08:16:27;;;;;;;18.98;9.43;;;;;;;3.99;55.77;98846.66;4249487;33;34507;-74
2021/12/04 08:18:55;;;;;;;14.52;7.32;;;;;;;3.50;56.34;98855.69;4248758;33;33857;-75
2021/12/04 08:21:23;;;;;;;17.00;8.40;;;;;;;4.75;53.64;98850.56;4261505;33;33772;-75
2021/12/04 08:23:52;;;;;;;19.52;10.40;;;;;;;4.77;54.31;98840.25;4234976;33;34268;-75
2021/12/04 08:26:20;;;;;;;47.10;17.23;;;;;;;4.22;56.06;98850.25;4246899;33;34555;-75
2021/12/04 08:28:48;;;;;;;17.67;10.02;;;;;;;3.32;57.55;98848.59;4250255;33;34436;-78
2021/12/04 08:31:16;;;;;;;18.42;9.18;;;;;;;3.32;58.27;98854.66;4249338;33;33915;-75
2021/12/04 08:33:45;;;;;;;19.15;9.55;;;;;;;3.21;58.89;98845.94;4260307;33;35224;-75
2021/12/04 08:36:12;;;;;;;35.92;13.52;;;;;;;5.21;55.73;98846.44;4262196;33;34372;-76
2021/12/04 08:38:46;;;;;;;24.25;14.10;;;;;;;7.40;50.11;98842.69;4238023;33;33472;-73
2021/12/04 08:41:16;;;;;;;22.83;10.82;;;;;;;5.54;51.63;98834.44;4261968;33;34345;-75
2021/12/04 08:43:43;;;;;;;12.88;8.35;;;;;;;5.77;51.67;98837.06;4245002;33;35211;-74
2021/12/04 08:46:14;;;;;;;15.23;7.20;;;;;;;8.12;48.49;98830.06;4246911;33;34469;-75
2021/12/04 08:48:42;;;;;;;17.90;8.50;;;;;;;8.90;46.13;98826.66;4250446;33;33562;-76
2021/12/04 08:51:10;;;;;;;11.55;6.85;;;;;;;8.83;47.28;98835.41;4262150;33;33887;-76
2021/12/04 08:53:38;;;;;;;17.17;8.32;;;;;;;7.79;48.73;98825.13;4248633;33;35144;-75
2021/12/04 08:56:06;;;;;;;15.48;9.27;;;;;;;9.13;46.65;98825.50;4261283;33;34502;-75
2021/12/04 08:58:36;;;;;;;16.15;8.65;;;;;;;9.68;45.24;98824.69;4248516;33;33696;-76
2021/12/04 09:01:07;;;;;;;21.30;9.65;;;;;;;9.53;44.27;98824.97;4262099;33;34032;-75
2021/12/04 09:03:38;;;;;;;31.77;14.52;;;;;;;8.85;45.26;98812.87;4261260;33;35924;-76
2021/12/04 09:06:06;;;;;;;21.17;11.12;;;;;;;9.15;44.37;98818.53;4249298;33;33818;-76
2021/12/04 09:08:34;;;;;;;25.95;11.77;;;;;;;8.91;45.17;98815.41;4248579;33;33815;-76
2021/12/04 09:11:07;;;;;;;17.73;9.45;;;;;;;8.27;45.80;98821.25;4261135;33;34769;-76
2021/12/04 09:13:35;;;;;;;17.12;9.55;;;;;;;8.25;45.25;98815.25;4248473;33;35540;-76
2021/12/04 09:16:04;;;;;;;19.77;10.23;;;;;;;8.64;44.49;98810.53;4261205;33;34572;-75
2021/12/04 09:18:32;;;;;;;27.90;13.65;;;;;;;7.64;46.51;98806.25;4259730;33;33737;-75
2021/12/04 09:21:00;;;;;;;19.25;11.07;;;;;;;7.02;47.82;98809.22;4261819;33;33890;-75
2021/12/04 09:23:37;;;;;;;22.83;11.70;;;;;;;7.55;46.67;98804.59;4259921;33;35999;-75
2021/12/04 09:26:15;;;;;;;23.27;11.05;;;;;;;7.06;48.88;98786.75;4261586;33;34673;-76
2021/12/04 09:28:53;;;;;;;20.30;10.57;;;;;;;6.69;49.24;98784.34;4260535;33;33754;-75
2021/12/04 09:31:35;;;;;;;19.40;9.23;;;;;;;6.81;49.16;98777.41;4261867;33;32267;-74
2021/12/04 09:34:20;;;;;;;16.58;9.88;;;;;;;7.36;47.72;98768.47;4260990;33;35198;-74
2021/12/04 09:40:12;;;;;;;17.65;10.27;;;;;;;6.93;48.61;98766.13;4261014;33;34613;-75
2021/12/04 10:22:23;;;;;;;26.20;12.32;;;;;;;5.68;50.69;98703.59;4246710;33;35134;-74
2021/12/04 10:33:40;;;;;;;22.27;10.98;;;;;;;5.53;50.18;98707.06;4258998;33;34518;-74
2021/12/04 10:36:09;;;;;;;20.12;10.63;;;;;;;5.40;52.51;98695.00;4246202;33;33757;-74
2021/12/04 10:38:43;;;;;;;21.48;11.23;;;;;;;5.81;50.12;98684.63;4234269;33;34850;-74
2021/12/04 10:41:13;;;;;;;19.40;10.52;;;;;;;5.92;50.81;98682.03;4234912;33;35905;-74
2021/12/04 10:43:41;;;;;;;21.40;10.98;;;;;;;6.15;49.02;98673.38;4246822;33;34526;-74
2021/12/04 10:46:14;;;;;;;20.27;10.75;;;;;;;6.62;47.61;98667.97;4247341;33;33755;-74
2021/12/04 10:48:51;;;;;;;20.35;10.93;;;;;;;7.59;46.17;98671.56;4246879;33;34811;-74
2021/12/04 10:51:30;;;;;;;22.75;10.98;;;;;;;6.60;47.64;98658.50;4259493;33;35266;-74
2021/12/04 10:54:04;;;;;;;17.90;10.38;;;;;;;7.06;45.51;98657.31;4260496;33;34592;-75
2021/12/04 10:57:00;;;;;;;19.83;10.30;;;;;;;7.66;45.10;98649.03;4260370;33;33839;-74
2021/12/04 10:59:41;;;;;;;20.05;9.93;;;;;;;7.87;43.54;98647.94;4260271;33;33838;-74
2021/12/04 11:02:46;;;;;;;21.17;9.77;;;;;;;8.27;42.27;98650.94;4248250;33;35233;-74
2021/12/04 11:06:04;;;;;;;22.58;11.63;;;;;;;8.74;41.11;98640.84;4255912;33;35357;-72
2021/12/04 11:20:33;;;;;;;18.48;10.35;;;;;;;6.50;45.40;98624.06;4259787;33;33731;-70
2021/12/04 11:44:45;;;;;;;16.98;8.68;;;;;;;10.21;37.39;98571.47;4261367;33;33989;-72
2021/12/04 11:46:46;;;;;;;14.43;8.48;;;;;;;10.55;36.94;98562.94;4242419;33;34969;-74
2021/12/04 11:49:21;;;;;;;13.35;7.87;;;;;;;9.51;36.50;98566.81;4249308;33;34079;-73
2021/12/04 11:52:00;;;;;;;15.40;7.55;;;;;;;8.89;36.45;98567.91;4262307;33;33929;-74
2021/12/04 11:54:33;;;;;;;13.77;6.97;;;;;;;9.76;35.44;98553.34;4260434;33;34705;-72
2021/12/04 11:57:09;;;;;;;14.07;7.90;;;;;;;7.71;38.58;98569.50;4249322;33;35069;-72
2021/12/04 11:59:40;;;;;;;15.35;9.15;;;;;;;7.88;38.46;98561.53;4261557;33;34751;-73
2021/12/04 12:02:16;;;;;;;21.23;8.77;;;;;;;7.46;40.59;98566.34;4261545;33;33947;-73
2021/12/04 12:04:48;;;;;;;16.17;8.60;;;;;;;6.33;42.45;98551.75;4248818;33;34759;-72
2021/12/04 12:07:25;;;;;;;10.98;7.00;;;;;;;6.26;42.40;98558.72;4261966;33;35029;-74
2021/12/04 12:10:11;;;;;;;31.12;12.15;;;;;;;5.79;43.13;98549.44;4261199;33;35180;-73
2021/12/04 12:12:42;;;;;;;33.83;11.95;;;;;;;6.29;43.96;98562.16;4260968;33;34585;-73
2021/12/04 12:15:37;;;;;;;10.43;6.40;;;;;;;5.89;44.93;98558.88;4242828;33;33743;-73
2021/12/04 12:18:16;;;;;;;21.25;10.50;;;;;;;5.23;45.77;98561.66;4259665;33;35067;-71
2021/12/04 12:23:17;;;;;;;14.02;7.15;;;;;;;5.77;45.14;98543.44;4262113;33;33712;-72
2021/12/04 12:34:07;;;;;;;20.33;9.55;;;;;;;5.87;46.33;98539.91;4239458;33;32941;-75
2021/12/04 12:36:36;;;;;;;17.23;9.15;;;;;;;5.79;46.61;98535.66;4250851;33;34666;-73
2021/12/04 12:39:11;;;;;;;20.70;9.32;;;;;;;5.20;48.01;98533.28;4260990;33;36051;-73
2021/12/04 12:41:41;;;;;;;19.23;9.13;;;;;;;6.50;44.94;98527.53;4247964;33;35038;-77
2021/12/04 12:44:18;;;;;;;18.48;9.02;;;;;;;5.84;44.60;98524.44;4246912;33;33787;-73
2021/12/04 12:46:53;;;;;;;15.98;8.57;;;;;;;6.01;45.31;98521.78;4246711;33;33839;-73
2021/12/04 12:49:26;;;;;;;15.57;8.48;;;;;;;6.72;43.18;98510.09;4248675;33;35658;-72
2021/12/04 12:52:19;;;;;;;18.50;9.80;;;;;;;6.06;45.64;98514.03;4260123;33;34600;-72
2021/12/04 12:54:55;;;;;;;15.75;9.57;;;;;;;6.02;46.78;98517.50;4253749;33;34500;-77
2021/12/04 12:57:29;;;;;;;16.62;8.85;;;;;;;5.94;46.14;98520.09;4260225;33;32327;-73
2021/12/04 13:11:56;;;;;;;16.98;7.90;;;;;;;4.46;49.07;98512.69;4249853;33;35716;-74
2021/12/04 13:14:28;;;;;;;16.83;7.72;;;;;;;4.78;48.52;98510.97;4261241;33;34545;-74
2021/12/04 13:16:59;;;;;;;17.60;8.93;;;;;;;5.01;48.38;98509.25;4246781;33;33673;-73
2021/12/04 13:19:28;;;;;;;15.75;8.32;;;;;;;4.88;49.20;98513.53;4247717;33;34724;-73
2021/12/04 13:22:00;;;;;;;17.23;9.57;;;;;;;4.84;49.82;98506.69;4234775;33;35995;-74
2021/12/04 13:24:31;;;;;;;16.15;9.38;;;;;;;4.20;50.89;98502.41;4247761;33;34604;-72
2021/12/04 13:29:44;;;;;;;13.80;8.10;;;;;;;4.37;51.70;98504.97;4260639;33;34971;-73
2021/12/04 13:32:15;;;;;;;16.50;9.13;;;;;;;4.69;50.01;98506.69;4261909;33;35873;-73
2021/12/04 13:34:44;;;;;;;18.48;7.62;;;;;;;4.73;49.30;98504.12;4248279;33;34591;-75
2021/12/04 13:37:12;;;;;;;14.98;7.93;;;;;;;4.90;48.17;98490.34;4260328;33;34595;-73
2021/12/04 13:39:42;;;;;;;17.55;7.18;;;;;;;3.76;49.78;98496.28;4260789;33;34590;-74
2021/12/04 13:42:10;;;;;;;15.90;7.97;;;;;;;4.50;48.71;98485.19;4261567;33;35221;-73
2021/12/04 13:44:38;;;;;;;15.55;8.30;;;;;;;4.15;50.03;98486.06;4259569;33;34460;-74
2021/12/04 13:47:08;;;;;;;12.37;7.15;;;;;;;4.34;49.26;98474.91;4260872;33;34555;-73
2021/12/04 13:49:56;;;;;;;16.92;7.93;;;;;;;4.28;49.97;98480.03;4260751;33;33991;-70
2021/12/04 13:52:27;;;;;;;14.13;7.25;;;;;;;4.34;49.42;98482.66;4246333;33;35204;-72
2021/12/04 13:55:06;;;;;;;11.50;6.43;;;;;;;3.85;50.28;98473.97;4248135;33;34813;-73
2021/12/04 13:57:38;;;;;;;18.27;6.85;;;;;;;4.12;49.86;98462.88;4261535;33;34423;-73
2021/12/04 14:00:07;;;;;;;13.10;6.18;;;;;;;4.49;49.67;98456.00;4260971;33;34761;-72
2021/12/04 14:02:36;;;;;;;12.20;6.50;;;;;;;3.89;50.98;98445.66;4261352;33;36004;-73
2021/12/04 14:05:13;;;;;;;10.52;5.07;;;;;;;4.23;50.00;98419.91;4259548;33;34572;-74
2021/12/04 14:07:49;;;;;;;12.98;5.28;;;;;;;3.91;49.60;98412.19;4260606;33;33829;-73
2021/12/04 14:10:20;;;;;;;14.20;6.60;;;;;;;3.34;51.29;98414.66;4259559;33;34816;-72
2021/12/04 14:12:49;;;;;;;19.02;6.20;;;;;;;3.15;52.50;98412.00;4261577;33;35994;-72
2021/12/04 14:15:19;;;;;;;15.02;8.00;;;;;;;3.09;52.96;98408.53;4260585;33;34601;-73
2021/12/04 14:18:06;;;;;;;11.95;5.37;;;;;;;2.85;53.53;98416.13;4237003;33;33871;-72
2021/12/04 14:20:37;;;;;;;12.82;6.03;;;;;;;3.36;51.85;98410.38;4248191;33;33862;-73
2021/12/04 14:23:05;;;;;;;14.02;6.28;;;;;;;3.08;52.90;98406.81;4248439;33;34340;-72
2021/12/04 14:25:42;;;;;;;12.32;6.05;;;;;;;2.82;53.90;98413.56;4260107;33;34169;-73
2021/12/04 14:28:18;;;;;;;11.80;6.15;;;;;;;3.20;52.89;98414.59;4249364;33;33663;-72
2021/12/04 14:30:47;;;;;;;10.57;6.25;;;;;;;3.15;53.02;98419.72;4248005;33;33856;-72
2021/12/04 14:33:21;;;;;;;18.48;7.07;;;;;;;2.79;54.44;98421.25;4248628;33;34353;-72
2021/12/04 14:35:53;;;;;;;22.35;8.68;;;;;;;2.84;54.03;98422.16;4259551;33;34693;-71
2021/12/04 14:38:24;;;;;;;12.85;6.78;;;;;;;2.64;54.70;98422.00;4261310;33;33972;-74
2021/12/04 14:40:57;;;;;;;13.82;6.82;;;;;;;2.95;54.33;98426.50;4260545;33;34732;-76
2021/12/04 14:43:28;;;;;;;15.55;8.05;;;;;;;2.52;55.19;98423.66;4235161;33;35043;-75
2021/12/04 14:45:59;;;;;;;17.30;7.72;;;;;;;2.98;54.29;98423.91;4252568;33;35162;-73
2021/12/04 14:48:36;;;;;;;18.65;7.78;;;;;;;2.40;55.70;98409.88;4261053;33;33591;-71